Terminal Aerodrome Forecast
Issued by NWS North Platte, NE

Current Version | Previous Version | Text Only | Print | Product List | Glossary On
Versions: 1 2 3 4 5 6 7 8 9 10 11 12 13 14 15 16 17 18 19 20 21 22 23 24 25 26
000
FTUS43 KLBF 280500 CCB
TAFLBF
TAF COR
KLBF 280550Z 2806/2906 VRB06KT 5SM TSRA BKN015 OVC035CB
      TEMPO 2806/2810 1SM +TSRA BKN015 OVC035CB
     FM281100 VRB04KT 3SM BR OVC011
     FM281500 31008KT P6SM SCT011 BKN200=

USA.gov is the U.S. government's official web portal to all federal, state and local government web resources and services.